sensor_id;sensor_type;location;lat;lon;timestamp;temperature;humidity
26621;DHT22;14253;44.840;10.444;2023-09-08T00:00:58;19.90;99.90
26621;DHT22;14253;44.840;10.444;2023-09-08T00:03:24;19.80;99.90
26621;DHT22;14253;44.840;10.444;2023-09-08T00:05:50;19.80;99.90
26621;DHT22;14253;44.840;10.444;2023-09-08T00:08:16;19.80;99.90
26621;DHT22;14253;44.840;10.444;2023-09-08T00:10:41;19.80;99.90
26621;DHT22;14253;44.840;10.444;2023-09-08T00:13:07;19.80;99.90
26621;DHT22;14253;44.840;10.444;2023-09-08T00:15:34;19.90;99.90
26621;DHT22;14253;44.840;10.444;2023-09-08T00:18:01;19.90;99.90
26621;DHT22;14253;44.840;10.444;2023-09-08T00:20:27;19.80;99.90
26621;DHT22;14253;44.840;10.444;2023-09-08T00:22:52;19.50;99.90
26621;DHT22;14253;44.840;10.444;2023-09-08T00:25:18;19.60;99.90
26621;DHT22;14253;44.840;10.444;2023-09-08T00:27:44;19.60;99.90
26621;DHT22;14253;44.840;10.444;2023-09-08T00:30:11;19.50;99.90
26621;DHT22;14253;44.840;10.444;2023-09-08T00:32:38;19.50;99.90
26621;DHT22;14253;44.840;10.444;2023-09-08T00:35:06;19.40;99.90
26621;DHT22;14253;44.840;10.444;2023-09-08T00:37:33;19.50;99.90
26621;DHT22;14253;44.840;10.444;2023-09-08T00:39:59;19.50;99.90
26621;DHT22;14253;44.840;10.444;2023-09-08T00:42:25;19.50;99.90
26621;DHT22;14253;44.840;10.444;2023-09-08T00:44:51;19.40;99.90
26621;DHT22;14253;44.840;10.444;2023-09-08T00:47:17;19.30;99.90
26621;DHT22;14253;44.840;10.444;2023-09-08T00:49:44;19.20;99.90
26621;DHT22;14253;44.840;10.444;2023-09-08T00:52:10;19.20;99.90
26621;DHT22;14253;44.840;10.444;2023-09-08T00:54:36;19.30;99.90
26621;DHT22;14253;44.840;10.444;2023-09-08T00:57:02;19.20;99.90
26621;DHT22;14253;44.840;10.444;2023-09-08T00:59:32;19.10;99.90
26621;DHT22;14253;44.840;10.444;2023-09-08T01:01:59;19.10;99.90
26621;DHT22;14253;44.840;10.444;2023-09-08T01:04:26;19.00;99.90
26621;DHT22;14253;44.840;10.444;2023-09-08T01:06:53;19.10;99.90
26621;DHT22;14253;44.840;10.444;2023-09-08T01:09:20;19.10;99.90
26621;DHT22;14253;44.840;10.444;2023-09-08T01:11:46;19.00;99.90
26621;DHT22;14253;44.840;10.444;2023-09-08T01:14:18;18.90;99.90
26621;DHT22;14253;44.840;10.444;2023-09-08T01:16:45;18.80;99.90
26621;DHT22;14253;44.840;10.444;2023-09-08T01:19:13;18.60;99.90
26621;DHT22;14253;44.840;10.444;2023-09-08T01:27:24;18.40;99.90
26621;DHT22;14253;44.840;10.444;2023-09-08T01:29:52;18.60;99.90
26621;DHT22;14253;44.840;10.444;2023-09-08T01:32:19;18.50;99.90
26621;DHT22;14253;44.840;10.444;2023-09-08T01:34:45;18.60;99.90
26621;DHT22;14253;44.840;10.444;2023-09-08T01:37:11;18.60;99.90
26621;DHT22;14253;44.840;10.444;2023-09-08T01:39:37;18.60;99.90
26621;DHT22;14253;44.840;10.444;2023-09-08T01:42:03;18.70;99.90
26621;DHT22;14253;44.840;10.444;2023-09-08T01:44:29;18.70;99.90
26621;DHT22;14253;44.840;10.444;2023-09-08T01:46:55;18.70;99.90
26621;DHT22;14253;44.840;10.444;2023-09-08T01:49:23;18.70;99.90
26621;DHT22;14253;44.840;10.444;2023-09-08T01:51:49;18.80;99.90
26621;DHT22;14253;44.840;10.444;2023-09-08T01:54:16;18.70;99.90
26621;DHT22;14253;44.840;10.444;2023-09-08T01:56:42;18.70;99.90
26621;DHT22;14253;44.840;10.444;2023-09-08T01:59:08;18.70;99.90
26621;DHT22;14253;44.840;10.444;2023-09-08T02:01:34;18.80;99.90
26621;DHT22;14253;44.840;10.444;2023-09-08T02:04:00;18.80;99.90
26621;DHT22;14253;44.840;10.444;2023-09-08T02:06:26;18.70;99.90
26621;DHT22;14253;44.840;10.444;2023-09-08T02:08:52;18.60;99.90
26621;DHT22;14253;44.840;10.444;2023-09-08T02:11:18;18.50;99.90
26621;DHT22;14253;44.840;10.444;2023-09-08T02:13:44;18.50;99.90
26621;DHT22;14253;44.840;10.444;2023-09-08T02:16:16;18.50;99.90
26621;DHT22;14253;44.840;10.444;2023-09-08T02:18:43;18.40;99.90
26621;DHT22;14253;44.840;10.444;2023-09-08T02:21:10;18.50;99.90
26621;DHT22;14253;44.840;10.444;2023-09-08T02:23:36;18.40;99.90
26621;DHT22;14253;44.840;10.444;2023-09-08T02:26:02;18.50;99.90
26621;DHT22;14253;44.840;10.444;2023-09-08T02:28:28;18.30;99.90
26621;DHT22;14253;44.840;10.444;2023-09-08T02:30:54;18.20;99.90
26621;DHT22;14253;44.840;10.444;2023-09-08T02:33:21;18.30;99.90
26621;DHT22;14253;44.840;10.444;2023-09-08T02:35:47;18.30;99.90
26621;DHT22;14253;44.840;10.444;2023-09-08T02:38:13;18.40;99.90
26621;DHT22;14253;44.840;10.444;2023-09-08T02:40:39;18.30;99.90
26621;DHT22;14253;44.840;10.444;2023-09-08T02:43:05;18.20;99.90
26621;DHT22;14253;44.840;10.444;2023-09-08T02:45:31;18.10;99.90
26621;DHT22;14253;44.840;10.444;2023-09-08T02:47:57;18.10;99.90
26621;DHT22;14253;44.840;10.444;2023-09-08T02:50:23;18.10;99.90
26621;DHT22;14253;44.840;10.444;2023-09-08T02:52:49;18.10;99.90
26621;DHT22;14253;44.840;10.444;2023-09-08T02:55:15;18.20;99.90
26621;DHT22;14253;44.840;10.444;2023-09-08T02:57:41;18.30;99.90
26621;DHT22;14253;44.840;10.444;2023-09-08T03:00:07;18.10;99.90
26621;DHT22;14253;44.840;10.444;2023-09-08T03:02:34;18.10;99.90
26621;DHT22;14253;44.840;10.444;2023-09-08T03:05:00;17.90;99.90
26621;DHT22;14253;44.840;10.444;2023-09-08T03:07:27;17.80;99.90
26621;DHT22;14253;44.840;10.444;2023-09-08T03:09:53;17.90;99.90
26621;DHT22;14253;44.840;10.444;2023-09-08T03:12:21;17.80;99.90
26621;DHT22;14253;44.840;10.444;2023-09-08T03:14:47;17.60;99.90
26621;DHT22;14253;44.840;10.444;2023-09-08T03:17:12;17.80;99.90
26621;DHT22;14253;44.840;10.444;2023-09-08T03:19:39;17.90;99.90
26621;DHT22;14253;44.840;10.444;2023-09-08T03:22:06;17.80;99.90
26621;DHT22;14253;44.840;10.444;2023-09-08T03:24:32;17.70;99.90
26621;DHT22;14253;44.840;10.444;2023-09-08T03:26:58;17.60;99.90
26621;DHT22;14253;44.840;10.444;2023-09-08T03:29:24;17.80;99.90
26621;DHT22;14253;44.840;10.444;2023-09-08T03:31:51;17.80;99.90
26621;DHT22;14253;44.840;10.444;2023-09-08T03:34:17;17.90;99.90
26621;DHT22;14253;44.840;10.444;2023-09-08T03:36:46;17.90;99.90
26621;DHT22;14253;44.840;10.444;2023-09-08T03:39:12;17.90;99.90
26621;DHT22;14253;44.840;10.444;2023-09-08T03:41:38;17.80;99.90
26621;DHT22;14253;44.840;10.444;2023-09-08T03:44:04;17.80;99.90
26621;DHT22;14253;44.840;10.444;2023-09-08T03:46:30;17.90;99.90
26621;DHT22;14253;44.840;10.444;2023-09-08T03:48:56;17.90;99.90
26621;DHT22;14253;44.840;10.444;2023-09-08T03:51:27;17.90;99.90
26621;DHT22;14253;44.840;10.444;2023-09-08T03:53:54;17.90;99.90
26621;DHT22;14253;44.840;10.444;2023-09-08T03:56:20;17.90;99.90
26621;DHT22;14253;44.840;10.444;2023-09-08T03:58:47;17.90;99.90
26621;DHT22;14253;44.840;10.444;2023-09-08T04:01:13;17.90;99.90
26621;DHT22;14253;44.840;10.444;2023-09-08T04:03:39;17.90;99.90
26621;DHT22;14253;44.840;10.444;2023-09-08T04:06:05;17.80;99.90
26621;DHT22;14253;44.840;10.444;2023-09-08T04:08:32;17.90;99.90
26621;DHT22;14253;44.840;10.444;2023-09-08T04:10:58;17.90;99.90
26621;DHT22;14253;44.840;10.444;2023-09-08T04:13:25;17.80;99.90
26621;DHT22;14253;44.840;10.444;2023-09-08T04:15:51;17.60;99.90
26621;DHT22;14253;44.840;10.444;2023-09-08T04:18:17;17.60;99.90
26621;DHT22;14253;44.840;10.444;2023-09-08T04:20:43;17.50;99.90
26621;DHT22;14253;44.840;10.444;2023-09-08T04:23:09;17.50;99.90
26621;DHT22;14253;44.840;10.444;2023-09-08T04:25:35;17.40;99.90
26621;DHT22;14253;44.840;10.444;2023-09-08T04:28:02;17.30;99.90
26621;DHT22;14253;44.840;10.444;2023-09-08T04:30:28;17.10;99.90
26621;DHT22;14253;44.840;10.444;2023-09-08T04:32:54;17.10;99.90
26621;DHT22;14253;44.840;10.444;2023-09-08T04:35:20;17.20;99.90
26621;DHT22;14253;44.840;10.444;2023-09-08T04:37:46;17.40;99.90
26621;DHT22;14253;44.840;10.444;2023-09-08T04:40:12;17.40;99.90
26621;DHT22;14253;44.840;10.444;2023-09-08T04:42:39;17.40;99.90
26621;DHT22;14253;44.840;10.444;2023-09-08T04:45:06;17.60;99.90
26621;DHT22;14253;44.840;10.444;2023-09-08T04:47:34;17.70;99.90
26621;DHT22;14253;44.840;10.444;2023-09-08T04:50:00;17.70;99.90
26621;DHT22;14253;44.840;10.444;2023-09-08T04:52:26;17.70;99.90
26621;DHT22;14253;44.840;10.444;2023-09-08T04:54:52;17.70;99.90
26621;DHT22;14253;44.840;10.444;2023-09-08T04:57:18;17.80;99.90
26621;DHT22;14253;44.840;10.444;2023-09-08T04:59:46;17.70;99.90
26621;DHT22;14253;44.840;10.444;2023-09-08T05:02:12;17.60;99.90
26621;DHT22;14253;44.840;10.444;2023-09-08T05:04:38;17.70;99.90
26621;DHT22;14253;44.840;10.444;2023-09-08T05:07:04;17.70;99.90
26621;DHT22;14253;44.840;10.444;2023-09-08T05:09:30;17.60;99.90
26621;DHT22;14253;44.840;10.444;2023-09-08T05:11:56;17.60;99.90
26621;DHT22;14253;44.840;10.444;2023-09-08T05:14:22;17.40;99.90
26621;DHT22;14253;44.840;10.444;2023-09-08T05:16:50;17.40;99.90
26621;DHT22;14253;44.840;10.444;2023-09-08T05:19:22;17.40;99.90
26621;DHT22;14253;44.840;10.444;2023-09-08T05:21:53;17.50;99.90
26621;DHT22;14253;44.840;10.444;2023-09-08T05:24:19;17.50;99.90
26621;DHT22;14253;44.840;10.444;2023-09-08T05:26:46;17.50;99.90
26621;DHT22;14253;44.840;10.444;2023-09-08T05:29:13;17.60;99.90
26621;DHT22;14253;44.840;10.444;2023-09-08T05:31:39;17.60;99.90
26621;DHT22;14253;44.840;10.444;2023-09-08T05:34:06;17.60;99.90
26621;DHT22;14253;44.840;10.444;2023-09-08T05:36:32;17.60;99.90
26621;DHT22;14253;44.840;10.444;2023-09-08T05:39:01;17.70;99.90
26621;DHT22;14253;44.840;10.444;2023-09-08T05:41:28;17.60;99.90
26621;DHT22;14253;44.840;10.444;2023-09-08T05:43:54;17.60;99.90
26621;DHT22;14253;44.840;10.444;2023-09-08T05:46:21;17.60;99.90
26621;DHT22;14253;44.840;10.444;2023-09-08T05:48:47;17.70;99.90
26621;DHT22;14253;44.840;10.444;2023-09-08T05:51:14;17.80;99.90
26621;DHT22;14253;44.840;10.444;2023-09-08T05:53:41;18.00;99.90
26621;DHT22;14253;44.840;10.444;2023-09-08T05:56:07;18.10;99.90
26621;DHT22;14253;44.840;10.444;2023-09-08T05:58:34;18.40;99.90
26621;DHT22;14253;44.840;10.444;2023-09-08T06:01:04;18.80;99.90
26621;DHT22;14253;44.840;10.444;2023-09-08T06:03:31;19.20;99.90
26621;DHT22;14253;44.840;10.444;2023-09-08T06:06:01;19.60;99.90
26621;DHT22;14253;44.840;10.444;2023-09-08T06:08:28;19.90;99.90
26621;DHT22;14253;44.840;10.444;2023-09-08T06:10:54;20.40;99.90
26621;DHT22;14253;44.840;10.444;2023-09-08T06:13:20;20.80;99.90
26621;DHT22;14253;44.840;10.444;2023-09-08T06:15:46;21.10;99.90
26621;DHT22;14253;44.840;10.444;2023-09-08T06:18:12;21.60;99.90
26621;DHT22;14253;44.840;10.444;2023-09-08T06:20:46;21.90;99.90
26621;DHT22;14253;44.840;10.444;2023-09-08T06:23:14;22.10;99.90
26621;DHT22;14253;44.840;10.444;2023-09-08T06:25:41;22.20;99.90
26621;DHT22;14253;44.840;10.444;2023-09-08T06:28:07;22.30;99.90
26621;DHT22;14253;44.840;10.444;2023-09-08T06:30:33;22.60;99.90
26621;DHT22;14253;44.840;10.444;2023-09-08T06:33:01;22.40;99.90
26621;DHT22;14253;44.840;10.444;2023-09-08T06:35:27;22.30;99.90
26621;DHT22;14253;44.840;10.444;2023-09-08T06:37:53;22.30;99.90
26621;DHT22;14253;44.840;10.444;2023-09-08T06:40:20;22.50;99.90
26621;DHT22;14253;44.840;10.444;2023-09-08T06:42:46;22.60;99.90
26621;DHT22;14253;44.840;10.444;2023-09-08T06:45:20;22.60;99.90
26621;DHT22;14253;44.840;10.444;2023-09-08T06:47:46;22.70;99.90
26621;DHT22;14253;44.840;10.444;2023-09-08T06:50:12;23.00;99.90
26621;DHT22;14253;44.840;10.444;2023-09-08T06:52:39;23.10;99.90
26621;DHT22;14253;44.840;10.444;2023-09-08T06:55:05;23.40;99.90
26621;DHT22;14253;44.840;10.444;2023-09-08T06:57:31;23.60;99.90
26621;DHT22;14253;44.840;10.444;2023-09-08T07:00:00;23.60;99.90
26621;DHT22;14253;44.840;10.444;2023-09-08T07:02:29;23.80;99.90
26621;DHT22;14253;44.840;10.444;2023-09-08T07:04:55;23.70;99.90
26621;DHT22;14253;44.840;10.444;2023-09-08T07:07:21;23.90;99.90
26621;DHT22;14253;44.840;10.444;2023-09-08T07:09:48;23.70;99.90
26621;DHT22;14253;44.840;10.444;2023-09-08T07:12:14;23.70;99.90
26621;DHT22;14253;44.840;10.444;2023-09-08T07:14:41;23.80;99.90
26621;DHT22;14253;44.840;10.444;2023-09-08T07:17:07;23.80;99.90
26621;DHT22;14253;44.840;10.444;2023-09-08T07:19:33;23.90;99.90
26621;DHT22;14253;44.840;10.444;2023-09-08T07:21:59;24.30;99.90
26621;DHT22;14253;44.840;10.444;2023-09-08T07:24:25;24.40;99.90
26621;DHT22;14253;44.840;10.444;2023-09-08T07:26:52;24.50;99.90
26621;DHT22;14253;44.840;10.444;2023-09-08T07:29:24;24.50;99.90
26621;DHT22;14253;44.840;10.444;2023-09-08T07:31:50;24.60;99.90
26621;DHT22;14253;44.840;10.444;2023-09-08T07:34:17;24.70;99.90
26621;DHT22;14253;44.840;10.444;2023-09-08T07:36:43;24.90;99.90
26621;DHT22;14253;44.840;10.444;2023-09-08T07:39:09;25.20;99.90
26621;DHT22;14253;44.840;10.444;2023-09-08T07:41:35;25.00;99.90
26621;DHT22;14253;44.840;10.444;2023-09-08T07:44:02;24.80;99.90
26621;DHT22;14253;44.840;10.444;2023-09-08T07:46:28;25.00;99.90
26621;DHT22;14253;44.840;10.444;2023-09-08T07:48:54;25.10;99.90
26621;DHT22;14253;44.840;10.444;2023-09-08T07:51:20;24.90;99.90
26621;DHT22;14253;44.840;10.444;2023-09-08T07:53:46;24.80;99.90
26621;DHT22;14253;44.840;10.444;2023-09-08T07:56:12;25.20;99.90
26621;DHT22;14253;44.840;10.444;2023-09-08T07:58:38;25.20;99.90
26621;DHT22;14253;44.840;10.444;2023-09-08T08:01:05;25.50;99.90
26621;DHT22;14253;44.840;10.444;2023-09-08T08:03:34;25.90;99.90
26621;DHT22;14253;44.840;10.444;2023-09-08T08:06:03;26.10;99.90
26621;DHT22;14253;44.840;10.444;2023-09-08T08:08:29;25.80;99.90
26621;DHT22;14253;44.840;10.444;2023-09-08T08:10:56;25.60;99.90
26621;DHT22;14253;44.840;10.444;2023-09-08T08:13:22;26.10;99.90
26621;DHT22;14253;44.840;10.444;2023-09-08T08:15:51;26.30;99.90
26621;DHT22;14253;44.840;10.444;2023-09-08T08:18:18;26.40;99.90
26621;DHT22;14253;44.840;10.444;2023-09-08T08:20:44;26.60;99.90
26621;DHT22;14253;44.840;10.444;2023-09-08T08:23:10;26.90;99.90
26621;DHT22;14253;44.840;10.444;2023-09-08T08:25:36;26.80;99.90
26621;DHT22;14253;44.840;10.444;2023-09-08T08:28:02;26.70;99.90
26621;DHT22;14253;44.840;10.444;2023-09-08T08:30:28;26.70;99.90
26621;DHT22;14253;44.840;10.444;2023-09-08T08:32:54;27.00;99.90
26621;DHT22;14253;44.840;10.444;2023-09-08T08:35:22;27.30;99.90
26621;DHT22;14253;44.840;10.444;2023-09-08T08:37:48;27.80;99.90
26621;DHT22;14253;44.840;10.444;2023-09-08T08:40:14;27.90;99.90
26621;DHT22;14253;44.840;10.444;2023-09-08T08:42:41;28.10;99.90
26621;DHT22;14253;44.840;10.444;2023-09-08T08:45:08;28.20;99.90
26621;DHT22;14253;44.840;10.444;2023-09-08T08:47:34;28.50;99.90
26621;DHT22;14253;44.840;10.444;2023-09-08T08:50:02;28.10;99.90
26621;DHT22;14253;44.840;10.444;2023-09-08T08:52:29;27.90;99.90
26621;DHT22;14253;44.840;10.444;2023-09-08T08:54:55;28.00;99.90
26621;DHT22;14253;44.840;10.444;2023-09-08T08:57:22;28.30;99.90
26621;DHT22;14253;44.840;10.444;2023-09-08T08:59:49;28.50;99.90
26621;DHT22;14253;44.840;10.444;2023-09-08T09:02:19;28.80;99.90
26621;DHT22;14253;44.840;10.444;2023-09-08T09:04:45;29.00;99.90
26621;DHT22;14253;44.840;10.444;2023-09-08T09:07:13;29.10;99.90
26621;DHT22;14253;44.840;10.444;2023-09-08T09:09:39;29.20;99.90
26621;DHT22;14253;44.840;10.444;2023-09-08T09:12:06;29.30;99.90
26621;DHT22;14253;44.840;10.444;2023-09-08T09:14:33;29.20;99.90
26621;DHT22;14253;44.840;10.444;2023-09-08T09:16:59;29.20;99.90
26621;DHT22;14253;44.840;10.444;2023-09-08T09:19:27;29.20;99.90
26621;DHT22;14253;44.840;10.444;2023-09-08T09:21:55;29.50;99.90
26621;DHT22;14253;44.840;10.444;2023-09-08T09:27:02;29.20;99.90
26621;DHT22;14253;44.840;10.444;2023-09-08T09:29:30;29.40;99.90
26621;DHT22;14253;44.840;10.444;2023-09-08T09:32:04;29.70;99.90
26621;DHT22;14253;44.840;10.444;2023-09-08T09:34:31;29.70;99.90
26621;DHT22;14253;44.840;10.444;2023-09-08T09:36:57;29.70;99.90
26621;DHT22;14253;44.840;10.444;2023-09-08T09:39:25;29.40;99.90
26621;DHT22;14253;44.840;10.444;2023-09-08T09:41:57;29.50;99.90
26621;DHT22;14253;44.840;10.444;2023-09-08T09:44:24;29.40;99.90
26621;DHT22;14253;44.840;10.444;2023-09-08T09:46:52;29.30;99.90
26621;DHT22;14253;44.840;10.444;2023-09-08T09:49:18;29.40;99.90
26621;DHT22;14253;44.840;10.444;2023-09-08T09:51:47;29.50;99.90
26621;DHT22;14253;44.840;10.444;2023-09-08T09:54:14;29.80;99.90
26621;DHT22;14253;44.840;10.444;2023-09-08T09:56:41;29.80;99.90
26621;DHT22;14253;44.840;10.444;2023-09-08T09:59:08;29.80;99.90
26621;DHT22;14253;44.840;10.444;2023-09-08T10:01:36;29.70;99.90
26621;DHT22;14253;44.840;10.444;2023-09-08T10:04:03;29.90;99.90
26621;DHT22;14253;44.840;10.444;2023-09-08T10:06:32;29.80;99.90
26621;DHT22;14253;44.840;10.444;2023-09-08T10:08:59;30.10;99.90
26621;DHT22;14253;44.840;10.444;2023-09-08T10:11:29;29.90;99.90
26621;DHT22;14253;44.840;10.444;2023-09-08T10:13:58;30.10;99.90
26621;DHT22;14253;44.840;10.444;2023-09-08T10:16:27;30.00;99.90
26621;DHT22;14253;44.840;10.444;2023-09-08T10:18:57;29.90;99.90
26621;DHT22;14253;44.840;10.444;2023-09-08T10:21:28;30.10;99.90
26621;DHT22;14253;44.840;10.444;2023-09-08T10:24:07;30.20;99.90
26621;DHT22;14253;44.840;10.444;2023-09-08T10:26:51;30.40;99.90
26621;DHT22;14253;44.840;10.444;2023-09-08T10:29:22;30.40;99.90
26621;DHT22;14253;44.840;10.444;2023-09-08T10:31:49;30.40;99.90
26621;DHT22;14253;44.840;10.444;2023-09-08T10:34:15;30.20;99.90
26621;DHT22;14253;44.840;10.444;2023-09-08T10:36:42;30.30;99.90
26621;DHT22;14253;44.840;10.444;2023-09-08T10:47:14;30.60;99.90
26621;DHT22;14253;44.840;10.444;2023-09-08T10:49:40;30.80;99.90
26621;DHT22;14253;44.840;10.444;2023-09-08T10:52:11;30.80;99.90
26621;DHT22;14253;44.840;10.444;2023-09-08T10:54:51;30.90;99.90
26621;DHT22;14253;44.840;10.444;2023-09-08T10:57:22;31.00;99.90
26621;DHT22;14253;44.840;10.444;2023-09-08T11:05:20;31.00;99.90
26621;DHT22;14253;44.840;10.444;2023-09-08T11:07:48;31.20;99.90
26621;DHT22;14253;44.840;10.444;2023-09-08T11:10:18;31.30;99.90
26621;DHT22;14253;44.840;10.444;2023-09-08T11:12:44;31.30;99.90
26621;DHT22;14253;44.840;10.444;2023-09-08T11:15:10;31.20;99.90
26621;DHT22;14253;44.840;10.444;2023-09-08T11:17:37;31.20;99.90
26621;DHT22;14253;44.840;10.444;2023-09-08T11:20:08;31.20;99.90
26621;DHT22;14253;44.840;10.444;2023-09-08T11:22:39;31.20;99.90
26621;DHT22;14253;44.840;10.444;2023-09-08T11:25:09;31.20;99.90
26621;DHT22;14253;44.840;10.444;2023-09-08T11:27:38;31.10;99.90
26621;DHT22;14253;44.840;10.444;2023-09-08T11:30:08;31.10;99.90
26621;DHT22;14253;44.840;10.444;2023-09-08T11:32:35;31.10;99.90
26621;DHT22;14253;44.840;10.444;2023-09-08T11:35:07;31.00;99.90
26621;DHT22;14253;44.840;10.444;2023-09-08T11:37:38;30.90;99.90
26621;DHT22;14253;44.840;10.444;2023-09-08T11:40:05;31.00;99.90
26621;DHT22;14253;44.840;10.444;2023-09-08T11:42:41;31.00;99.90
26621;DHT22;14253;44.840;10.444;2023-09-08T11:45:16;31.10;99.90
26621;DHT22;14253;44.840;10.444;2023-09-08T11:47:47;31.00;99.90
26621;DHT22;14253;44.840;10.444;2023-09-08T11:50:15;31.10;99.90
26621;DHT22;14253;44.840;10.444;2023-09-08T11:52:50;31.20;99.90
26621;DHT22;14253;44.840;10.444;2023-09-08T11:55:18;31.20;99.90
26621;DHT22;14253;44.840;10.444;2023-09-08T11:57:47;31.20;99.90
26621;DHT22;14253;44.840;10.444;2023-09-08T12:00:15;31.10;99.90
26621;DHT22;14253;44.840;10.444;2023-09-08T12:02:44;31.20;99.90
26621;DHT22;14253;44.840;10.444;2023-09-08T12:05:27;31.30;99.90
26621;DHT22;14253;44.840;10.444;2023-09-08T12:07:55;31.10;99.90
26621;DHT22;14253;44.840;10.444;2023-09-08T12:10:25;31.00;99.90
26621;DHT22;14253;44.840;10.444;2023-09-08T12:12:52;31.20;99.90
26621;DHT22;14253;44.840;10.444;2023-09-08T12:15:39;31.30;99.90
26621;DHT22;14253;44.840;10.444;2023-09-08T12:18:11;31.30;99.90
26621;DHT22;14253;44.840;10.444;2023-09-08T12:20:38;31.50;99.90
26621;DHT22;14253;44.840;10.444;2023-09-08T12:23:15;31.60;99.90
26621;DHT22;14253;44.840;10.444;2023-09-08T12:25:49;31.70;99.90
26621;DHT22;14253;44.840;10.444;2023-09-08T12:28:16;31.70;99.90
26621;DHT22;14253;44.840;10.444;2023-09-08T12:30:43;31.90;99.90
26621;DHT22;14253;44.840;10.444;2023-09-08T12:33:09;32.00;99.90
26621;DHT22;14253;44.840;10.444;2023-09-08T12:35:35;31.90;99.90
26621;DHT22;14253;44.840;10.444;2023-09-08T12:38:03;31.90;99.90
26621;DHT22;14253;44.840;10.444;2023-09-08T12:40:34;32.00;99.90
26621;DHT22;14253;44.840;10.444;2023-09-08T12:43:01;32.00;99.90
26621;DHT22;14253;44.840;10.444;2023-09-08T12:45:27;32.00;99.90
26621;DHT22;14253;44.840;10.444;2023-09-08T12:47:58;32.00;99.90
26621;DHT22;14253;44.840;10.444;2023-09-08T12:50:25;32.00;99.90
26621;DHT22;14253;44.840;10.444;2023-09-08T12:52:51;32.00;99.90
26621;DHT22;14253;44.840;10.444;2023-09-08T12:55:17;32.00;99.90
26621;DHT22;14253;44.840;10.444;2023-09-08T12:57:43;32.20;99.90
26621;DHT22;14253;44.840;10.444;2023-09-08T13:00:09;32.10;99.90
26621;DHT22;14253;44.840;10.444;2023-09-08T13:02:35;31.90;99.90
26621;DHT22;14253;44.840;10.444;2023-09-08T13:05:02;31.90;99.90
26621;DHT22;14253;44.840;10.444;2023-09-08T13:07:28;31.60;99.90
26621;DHT22;14253;44.840;10.444;2023-09-08T13:09:54;31.60;99.90
26621;DHT22;14253;44.840;10.444;2023-09-08T13:12:20;31.60;99.90
26621;DHT22;14253;44.840;10.444;2023-09-08T13:14:46;31.70;99.90
26621;DHT22;14253;44.840;10.444;2023-09-08T13:17:13;31.80;99.90
26621;DHT22;14253;44.840;10.444;2023-09-08T13:19:44;31.90;99.90
26621;DHT22;14253;44.840;10.444;2023-09-08T13:22:10;32.00;99.90
26621;DHT22;14253;44.840;10.444;2023-09-08T13:24:36;32.40;99.90
26621;DHT22;14253;44.840;10.444;2023-09-08T13:27:03;32.50;99.90
26621;DHT22;14253;44.840;10.444;2023-09-08T13:29:29;32.40;99.90
26621;DHT22;14253;44.840;10.444;2023-09-08T13:31:55;32.40;99.90
26621;DHT22;14253;44.840;10.444;2023-09-08T13:34:21;32.40;99.90
26621;DHT22;14253;44.840;10.444;2023-09-08T13:36:48;32.40;99.90
26621;DHT22;14253;44.840;10.444;2023-09-08T13:39:14;32.40;99.90
26621;DHT22;14253;44.840;10.444;2023-09-08T13:41:54;32.40;99.90
26621;DHT22;14253;44.840;10.444;2023-09-08T13:44:22;32.50;99.90
26621;DHT22;14253;44.840;10.444;2023-09-08T13:46:49;32.40;99.90
26621;DHT22;14253;44.840;10.444;2023-09-08T13:49:15;32.50;99.90
26621;DHT22;14253;44.840;10.444;2023-09-08T13:51:42;32.40;99.90
26621;DHT22;14253;44.840;10.444;2023-09-08T13:54:09;32.60;99.90
26621;DHT22;14253;44.840;10.444;2023-09-08T13:56:38;32.70;99.90
26621;DHT22;14253;44.840;10.444;2023-09-08T13:59:05;32.70;99.90
26621;DHT22;14253;44.840;10.444;2023-09-08T14:01:33;32.10;99.90
26621;DHT22;14253;44.840;10.444;2023-09-08T14:04:00;31.90;99.90
26621;DHT22;14253;44.840;10.444;2023-09-08T14:06:27;31.70;99.90
26621;DHT22;14253;44.840;10.444;2023-09-08T14:08:53;31.70;99.90
26621;DHT22;14253;44.840;10.444;2023-09-08T14:11:19;31.50;99.90
26621;DHT22;14253;44.840;10.444;2023-09-08T14:13:45;31.50;99.90
26621;DHT22;14253;44.840;10.444;2023-09-08T14:16:11;31.70;99.90
26621;DHT22;14253;44.840;10.444;2023-09-08T14:18:39;32.00;99.90
26621;DHT22;14253;44.840;10.444;2023-09-08T14:21:06;32.10;99.90
26621;DHT22;14253;44.840;10.444;2023-09-08T14:23:32;32.00;99.90
26621;DHT22;14253;44.840;10.444;2023-09-08T14:25:59;32.20;99.90
26621;DHT22;14253;44.840;10.444;2023-09-08T14:28:26;32.20;99.90
26621;DHT22;14253;44.840;10.444;2023-09-08T14:30:53;32.20;99.90
26621;DHT22;14253;44.840;10.444;2023-09-08T14:33:19;32.30;99.90
26621;DHT22;14253;44.840;10.444;2023-09-08T14:35:46;32.40;99.90
26621;DHT22;14253;44.840;10.444;2023-09-08T14:38:17;32.40;99.90
26621;DHT22;14253;44.840;10.444;2023-09-08T14:40:44;32.50;99.90
26621;DHT22;14253;44.840;10.444;2023-09-08T14:43:11;32.60;99.90
26621;DHT22;14253;44.840;10.444;2023-09-08T14:45:37;32.70;99.90
26621;DHT22;14253;44.840;10.444;2023-09-08T14:48:03;32.60;99.90
26621;DHT22;14253;44.840;10.444;2023-09-08T14:50:31;32.60;99.90
26621;DHT22;14253;44.840;10.444;2023-09-08T14:52:57;32.60;99.90
26621;DHT22;14253;44.840;10.444;2023-09-08T14:55:24;32.60;99.90
26621;DHT22;14253;44.840;10.444;2023-09-08T14:57:51;32.50;99.90
26621;DHT22;14253;44.840;10.444;2023-09-08T15:00:17;32.70;99.90
26621;DHT22;14253;44.840;10.444;2023-09-08T15:02:43;33.00;99.90
26621;DHT22;14253;44.840;10.444;2023-09-08T15:05:09;32.90;99.90
26621;DHT22;14253;44.840;10.444;2023-09-08T15:07:34;32.80;99.90
26621;DHT22;14253;44.840;10.444;2023-09-08T15:10:01;33.00;99.90
26621;DHT22;14253;44.840;10.444;2023-09-08T15:12:27;33.20;99.90
26621;DHT22;14253;44.840;10.444;2023-09-08T15:14:52;33.40;99.90
26621;DHT22;14253;44.840;10.444;2023-09-08T15:17:18;33.60;99.90
26621;DHT22;14253;44.840;10.444;2023-09-08T15:19:45;33.70;99.90
26621;DHT22;14253;44.840;10.444;2023-09-08T15:22:11;33.70;99.90
26621;DHT22;14253;44.840;10.444;2023-09-08T15:24:38;33.80;99.90
26621;DHT22;14253;44.840;10.444;2023-09-08T15:27:04;34.00;99.90
26621;DHT22;14253;44.840;10.444;2023-09-08T15:29:30;34.50;99.90
26621;DHT22;14253;44.840;10.444;2023-09-08T15:31:56;34.60;99.90
26621;DHT22;14253;44.840;10.444;2023-09-08T15:34:22;34.90;99.90
26621;DHT22;14253;44.840;10.444;2023-09-08T15:36:48;35.10;99.90